sensor_id;sensor_type;location;lat;lon;timestamp;P1;durP1;ratioP1;P2;durP2;ratioP2
26598;SDS011;14240;51.064;16.612;2023-07-22T00:00:58;7.88;;;4.90;;
26598;SDS011;14240;51.064;16.612;2023-07-22T00:03:24;11.48;;;4.90;;
26598;SDS011;14240;51.064;16.612;2023-07-22T00:06:01;6.00;;;5.05;;
26598;SDS011;14240;51.064;16.612;2023-07-22T00:08:31;8.25;;;5.45;;
26598;SDS011;14240;51.064;16.612;2023-07-22T00:10:57;10.82;;;6.10;;
26598;SDS011;14240;51.064;16.612;2023-07-22T00:13:23;8.88;;;5.40;;
26598;SDS011;14240;51.064;16.612;2023-07-22T00:15:51;8.48;;;5.60;;
26598;SDS011;14240;51.064;16.612;2023-07-22T00:18:20;10.18;;;6.47;;
26598;SDS011;14240;51.064;16.612;2023-07-22T00:20:46;7.65;;;6.15;;
26598;SDS011;14240;51.064;16.612;2023-07-22T00:23:11;12.38;;;8.32;;
26598;SDS011;14240;51.064;16.612;2023-07-22T00:25:37;12.27;;;7.68;;
26598;SDS011;14240;51.064;16.612;2023-07-22T00:28:02;12.23;;;8.40;;
26598;SDS011;14240;51.064;16.612;2023-07-22T00:30:31;12.00;;;7.53;;
26598;SDS011;14240;51.064;16.612;2023-07-22T00:32:56;11.20;;;7.05;;
26598;SDS011;14240;51.064;16.612;2023-07-22T00:35:22;8.77;;;7.32;;
26598;SDS011;14240;51.064;16.612;2023-07-22T00:37:47;11.98;;;7.38;;
26598;SDS011;14240;51.064;16.612;2023-07-22T00:40:13;16.92;;;7.50;;
26598;SDS011;14240;51.064;16.612;2023-07-22T00:42:39;12.65;;;7.95;;
26598;SDS011;14240;51.064;16.612;2023-07-22T00:45:05;15.30;;;8.10;;
26598;SDS011;14240;51.064;16.612;2023-07-22T00:47:32;12.93;;;8.07;;
26598;SDS011;14240;51.064;16.612;2023-07-22T00:49:59;14.43;;;7.93;;
26598;SDS011;14240;51.064;16.612;2023-07-22T00:52:27;12.88;;;7.65;;
26598;SDS011;14240;51.064;16.612;2023-07-22T00:54:53;15.25;;;8.20;;
26598;SDS011;14240;51.064;16.612;2023-07-22T00:57:20;11.85;;;7.72;;
26598;SDS011;14240;51.064;16.612;2023-07-22T00:59:46;13.05;;;7.50;;
26598;SDS011;14240;51.064;16.612;2023-07-22T01:02:11;11.43;;;8.02;;
26598;SDS011;14240;51.064;16.612;2023-07-22T01:04:37;13.35;;;8.00;;
26598;SDS011;14240;51.064;16.612;2023-07-22T01:07:04;10.23;;;7.95;;
26598;SDS011;14240;51.064;16.612;2023-07-22T01:09:37;13.70;;;8.23;;
26598;SDS011;14240;51.064;16.612;2023-07-22T01:12:07;9.23;;;6.85;;
26598;SDS011;14240;51.064;16.612;2023-07-22T01:14:37;12.73;;;8.07;;
26598;SDS011;14240;51.064;16.612;2023-07-22T01:17:05;12.57;;;8.10;;
26598;SDS011;14240;51.064;16.612;2023-07-22T01:22:01;9.63;;;6.95;;
26598;SDS011;14240;51.064;16.612;2023-07-22T01:24:28;10.70;;;7.18;;
26598;SDS011;14240;51.064;16.612;2023-07-22T01:26:54;10.23;;;7.45;;
26598;SDS011;14240;51.064;16.612;2023-07-22T01:29:24;9.82;;;7.35;;
26598;SDS011;14240;51.064;16.612;2023-07-22T01:31:52;12.00;;;7.57;;
26598;SDS011;14240;51.064;16.612;2023-07-22T01:34:18;10.07;;;7.53;;
26598;SDS011;14240;51.064;16.612;2023-07-22T01:36:44;10.73;;;7.43;;
26598;SDS011;14240;51.064;16.612;2023-07-22T01:39:12;11.93;;;8.25;;
26598;SDS011;14240;51.064;16.612;2023-07-22T01:41:42;10.05;;;7.68;;
26598;SDS011;14240;51.064;16.612;2023-07-22T01:44:08;16.00;;;7.82;;
26598;SDS011;14240;51.064;16.612;2023-07-22T01:46:34;10.25;;;7.35;;
26598;SDS011;14240;51.064;16.612;2023-07-22T01:49:01;11.75;;;7.05;;
26598;SDS011;14240;51.064;16.612;2023-07-22T01:53:54;11.45;;;7.72;;
26598;SDS011;14240;51.064;16.612;2023-07-22T01:56:21;13.90;;;7.82;;
26598;SDS011;14240;51.064;16.612;2023-07-22T01:58:47;10.48;;;7.75;;
26598;SDS011;14240;51.064;16.612;2023-07-22T02:01:13;11.75;;;7.80;;
26598;SDS011;14240;51.064;16.612;2023-07-22T02:03:40;12.70;;;8.02;;
26598;SDS011;14240;51.064;16.612;2023-07-22T02:06:06;11.05;;;7.97;;
26598;SDS011;14240;51.064;16.612;2023-07-22T02:08:32;10.48;;;7.55;;
26598;SDS011;14240;51.064;16.612;2023-07-22T02:11:02;12.85;;;7.72;;
26598;SDS011;14240;51.064;16.612;2023-07-22T02:13:32;12.70;;;7.72;;
26598;SDS011;14240;51.064;16.612;2023-07-22T02:15:59;10.25;;;6.90;;
26598;SDS011;14240;51.064;16.612;2023-07-22T02:18:26;9.10;;;6.43;;
26598;SDS011;14240;51.064;16.612;2023-07-22T02:20:52;9.63;;;7.25;;
26598;SDS011;14240;51.064;16.612;2023-07-22T02:23:19;8.32;;;6.65;;
26598;SDS011;14240;51.064;16.612;2023-07-22T02:25:48;14.25;;;7.47;;
26598;SDS011;14240;51.064;16.612;2023-07-22T02:28:14;8.55;;;6.45;;
26598;SDS011;14240;51.064;16.612;2023-07-22T02:30:40;8.93;;;6.50;;
26598;SDS011;14240;51.064;16.612;2023-07-22T02:33:06;11.73;;;6.18;;
26598;SDS011;14240;51.064;16.612;2023-07-22T02:35:33;8.50;;;5.65;;
26598;SDS011;14240;51.064;16.612;2023-07-22T02:37:58;10.35;;;6.40;;
26598;SDS011;14240;51.064;16.612;2023-07-22T02:40:24;10.52;;;6.47;;
26598;SDS011;14240;51.064;16.612;2023-07-22T02:42:50;9.80;;;6.50;;
26598;SDS011;14240;51.064;16.612;2023-07-22T02:45:15;7.97;;;5.90;;
26598;SDS011;14240;51.064;16.612;2023-07-22T02:47:41;7.20;;;5.72;;
26598;SDS011;14240;51.064;16.612;2023-07-22T02:50:07;7.85;;;6.18;;
26598;SDS011;14240;51.064;16.612;2023-07-22T02:52:33;12.05;;;7.03;;
26598;SDS011;14240;51.064;16.612;2023-07-22T02:55:07;12.40;;;7.13;;
26598;SDS011;14240;51.064;16.612;2023-07-22T02:57:35;9.30;;;6.78;;
26598;SDS011;14240;51.064;16.612;2023-07-22T03:00:02;12.57;;;6.72;;
26598;SDS011;14240;51.064;16.612;2023-07-22T03:02:32;8.63;;;6.53;;
26598;SDS011;14240;51.064;16.612;2023-07-22T03:04:58;8.13;;;5.40;;
26598;SDS011;14240;51.064;16.612;2023-07-22T03:07:24;10.27;;;5.38;;
26598;SDS011;14240;51.064;16.612;2023-07-22T03:09:51;9.60;;;5.70;;
26598;SDS011;14240;51.064;16.612;2023-07-22T03:12:17;11.50;;;6.40;;
26598;SDS011;14240;51.064;16.612;2023-07-22T03:14:42;11.45;;;6.72;;
26598;SDS011;14240;51.064;16.612;2023-07-22T03:17:08;8.05;;;5.15;;
26598;SDS011;14240;51.064;16.612;2023-07-22T03:19:34;12.32;;;6.68;;
26598;SDS011;14240;51.064;16.612;2023-07-22T03:22:00;11.32;;;5.35;;
26598;SDS011;14240;51.064;16.612;2023-07-22T03:24:27;11.10;;;6.15;;
26598;SDS011;14240;51.064;16.612;2023-07-22T03:26:53;14.00;;;5.53;;
26598;SDS011;14240;51.064;16.612;2023-07-22T03:29:18;10.57;;;4.93;;
26598;SDS011;14240;51.064;16.612;2023-07-22T03:31:44;10.93;;;4.72;;
26598;SDS011;14240;51.064;16.612;2023-07-22T03:34:10;6.00;;;3.67;;
26598;SDS011;14240;51.064;16.612;2023-07-22T03:36:35;8.38;;;4.22;;
26598;SDS011;14240;51.064;16.612;2023-07-22T03:39:01;5.40;;;4.07;;
26598;SDS011;14240;51.064;16.612;2023-07-22T03:41:27;4.47;;;3.65;;
26598;SDS011;14240;51.064;16.612;2023-07-22T03:43:53;7.78;;;4.35;;
26598;SDS011;14240;51.064;16.612;2023-07-22T03:46:19;5.63;;;3.85;;
26598;SDS011;14240;51.064;16.612;2023-07-22T03:48:44;6.53;;;3.83;;
26598;SDS011;14240;51.064;16.612;2023-07-22T03:51:10;7.20;;;3.85;;
26598;SDS011;14240;51.064;16.612;2023-07-22T03:53:35;8.02;;;3.55;;
26598;SDS011;14240;51.064;16.612;2023-07-22T03:56:01;10.82;;;3.75;;
26598;SDS011;14240;51.064;16.612;2023-07-22T03:58:27;5.78;;;3.35;;
26598;SDS011;14240;51.064;16.612;2023-07-22T04:00:52;8.25;;;3.97;;
26598;SDS011;14240;51.064;16.612;2023-07-22T04:03:18;6.35;;;3.65;;
26598;SDS011;14240;51.064;16.612;2023-07-22T04:05:43;6.07;;;3.65;;
26598;SDS011;14240;51.064;16.612;2023-07-22T04:08:09;10.23;;;3.63;;
26598;SDS011;14240;51.064;16.612;2023-07-22T04:10:35;5.00;;;3.47;;
26598;SDS011;14240;51.064;16.612;2023-07-22T04:13:00;12.23;;;3.53;;
26598;SDS011;14240;51.064;16.612;2023-07-22T04:15:26;4.60;;;3.45;;
26598;SDS011;14240;51.064;16.612;2023-07-22T04:17:51;5.25;;;3.20;;
26598;SDS011;14240;51.064;16.612;2023-07-22T04:20:17;4.60;;;3.28;;
26598;SDS011;14240;51.064;16.612;2023-07-22T04:22:43;4.70;;;3.20;;
26598;SDS011;14240;51.064;16.612;2023-07-22T04:25:09;5.55;;;3.75;;
26598;SDS011;14240;51.064;16.612;2023-07-22T04:27:34;7.57;;;2.95;;
26598;SDS011;14240;51.064;16.612;2023-07-22T04:30:00;7.72;;;3.42;;
26598;SDS011;14240;51.064;16.612;2023-07-22T04:32:26;4.55;;;2.83;;
26598;SDS011;14240;51.064;16.612;2023-07-22T04:34:51;4.47;;;3.60;;
26598;SDS011;14240;51.064;16.612;2023-07-22T04:37:17;8.18;;;2.88;;
26598;SDS011;14240;51.064;16.612;2023-07-22T04:39:46;8.40;;;3.33;;
26598;SDS011;14240;51.064;16.612;2023-07-22T04:42:13;6.40;;;2.92;;
26598;SDS011;14240;51.064;16.612;2023-07-22T04:44:39;5.28;;;3.17;;
26598;SDS011;14240;51.064;16.612;2023-07-22T04:47:05;4.35;;;3.00;;
26598;SDS011;14240;51.064;16.612;2023-07-22T04:49:31;5.35;;;3.03;;
26598;SDS011;14240;51.064;16.612;2023-07-22T04:51:57;4.07;;;3.05;;
26598;SDS011;14240;51.064;16.612;2023-07-22T04:54:22;5.07;;;2.65;;
26598;SDS011;14240;51.064;16.612;2023-07-22T04:56:48;4.00;;;2.83;;
26598;SDS011;14240;51.064;16.612;2023-07-22T04:59:13;5.45;;;3.13;;
26598;SDS011;14240;51.064;16.612;2023-07-22T05:01:40;3.67;;;2.70;;
26598;SDS011;14240;51.064;16.612;2023-07-22T05:04:05;4.28;;;3.15;;
26598;SDS011;14240;51.064;16.612;2023-07-22T05:06:31;5.10;;;3.22;;
26598;SDS011;14240;51.064;16.612;2023-07-22T05:08:57;4.90;;;3.38;;
26598;SDS011;14240;51.064;16.612;2023-07-22T05:11:23;7.47;;;3.00;;
26598;SDS011;14240;51.064;16.612;2023-07-22T05:13:49;4.90;;;3.00;;
26598;SDS011;14240;51.064;16.612;2023-07-22T05:16:15;3.67;;;2.70;;
26598;SDS011;14240;51.064;16.612;2023-07-22T05:18:41;7.15;;;3.08;;
26598;SDS011;14240;51.064;16.612;2023-07-22T05:21:07;4.18;;;3.25;;
26598;SDS011;14240;51.064;16.612;2023-07-22T05:23:32;3.58;;;2.97;;
26598;SDS011;14240;51.064;16.612;2023-07-22T05:25:58;5.88;;;3.00;;
26598;SDS011;14240;51.064;16.612;2023-07-22T05:28:24;4.22;;;3.10;;
26598;SDS011;14240;51.064;16.612;2023-07-22T05:30:49;5.10;;;3.00;;
26598;SDS011;14240;51.064;16.612;2023-07-22T05:33:15;4.68;;;3.08;;
26598;SDS011;14240;51.064;16.612;2023-07-22T05:35:41;3.47;;;2.90;;
26598;SDS011;14240;51.064;16.612;2023-07-22T05:38:06;7.22;;;2.92;;
26598;SDS011;14240;51.064;16.612;2023-07-22T05:40:32;4.32;;;3.30;;
26598;SDS011;14240;51.064;16.612;2023-07-22T05:42:57;6.80;;;3.72;;
26598;SDS011;14240;51.064;16.612;2023-07-22T05:45:23;4.38;;;3.10;;
26598;SDS011;14240;51.064;16.612;2023-07-22T05:47:49;5.55;;;2.70;;
26598;SDS011;14240;51.064;16.612;2023-07-22T05:50:14;6.40;;;3.35;;
26598;SDS011;14240;51.064;16.612;2023-07-22T05:52:40;5.05;;;2.85;;
26598;SDS011;14240;51.064;16.612;2023-07-22T05:55:05;4.93;;;3.58;;
26598;SDS011;14240;51.064;16.612;2023-07-22T05:57:31;5.55;;;3.17;;
26598;SDS011;14240;51.064;16.612;2023-07-22T05:59:57;6.07;;;3.22;;
26598;SDS011;14240;51.064;16.612;2023-07-22T06:02:22;4.10;;;3.10;;
26598;SDS011;14240;51.064;16.612;2023-07-22T06:04:48;4.40;;;3.15;;
26598;SDS011;14240;51.064;16.612;2023-07-22T06:07:13;5.88;;;4.05;;
26598;SDS011;14240;51.064;16.612;2023-07-22T06:09:39;5.03;;;3.38;;
26598;SDS011;14240;51.064;16.612;2023-07-22T06:12:05;4.80;;;3.20;;
26598;SDS011;14240;51.064;16.612;2023-07-22T06:14:31;4.57;;;3.30;;
26598;SDS011;14240;51.064;16.612;2023-07-22T06:16:57;5.78;;;3.33;;
26598;SDS011;14240;51.064;16.612;2023-07-22T06:19:23;5.78;;;3.20;;
26598;SDS011;14240;51.064;16.612;2023-07-22T06:21:49;5.07;;;3.08;;
26598;SDS011;14240;51.064;16.612;2023-07-22T06:24:16;4.75;;;3.13;;
26598;SDS011;14240;51.064;16.612;2023-07-22T06:26:42;3.95;;;2.88;;
26598;SDS011;14240;51.064;16.612;2023-07-22T06:29:07;6.97;;;3.90;;
26598;SDS011;14240;51.064;16.612;2023-07-22T06:31:33;5.95;;;3.28;;
26598;SDS011;14240;51.064;16.612;2023-07-22T06:33:59;5.10;;;3.58;;
26598;SDS011;14240;51.064;16.612;2023-07-22T06:36:25;4.25;;;3.20;;
26598;SDS011;14240;51.064;16.612;2023-07-22T06:38:51;4.35;;;3.55;;
26598;SDS011;14240;51.064;16.612;2023-07-22T06:41:17;6.38;;;3.30;;
26598;SDS011;14240;51.064;16.612;2023-07-22T06:43:44;4.10;;;3.35;;
26598;SDS011;14240;51.064;16.612;2023-07-22T06:46:09;3.40;;;3.05;;
26598;SDS011;14240;51.064;16.612;2023-07-22T06:48:35;5.60;;;3.33;;
26598;SDS011;14240;51.064;16.612;2023-07-22T06:51:01;6.03;;;3.38;;
26598;SDS011;14240;51.064;16.612;2023-07-22T06:53:26;5.63;;;3.05;;
26598;SDS011;14240;51.064;16.612;2023-07-22T06:55:52;7.80;;;3.40;;
26598;SDS011;14240;51.064;16.612;2023-07-22T06:58:18;4.07;;;3.20;;
26598;SDS011;14240;51.064;16.612;2023-07-22T07:00:44;4.65;;;3.28;;
26598;SDS011;14240;51.064;16.612;2023-07-22T07:03:10;3.75;;;3.28;;
26598;SDS011;14240;51.064;16.612;2023-07-22T07:05:36;8.52;;;3.70;;
26598;SDS011;14240;51.064;16.612;2023-07-22T07:08:05;7.45;;;3.38;;
26598;SDS011;14240;51.064;16.612;2023-07-22T07:10:34;3.85;;;2.75;;
26598;SDS011;14240;51.064;16.612;2023-07-22T07:13:02;4.32;;;2.70;;
26598;SDS011;14240;51.064;16.612;2023-07-22T07:15:27;6.55;;;2.90;;
26598;SDS011;14240;51.064;16.612;2023-07-22T07:17:53;4.80;;;2.88;;
26598;SDS011;14240;51.064;16.612;2023-07-22T07:20:19;6.25;;;3.20;;
26598;SDS011;14240;51.064;16.612;2023-07-22T07:22:45;5.85;;;2.50;;
26598;SDS011;14240;51.064;16.612;2023-07-22T07:25:10;4.45;;;2.78;;
26598;SDS011;14240;51.064;16.612;2023-07-22T07:27:36;5.07;;;2.25;;
26598;SDS011;14240;51.064;16.612;2023-07-22T07:30:02;3.92;;;2.50;;
26598;SDS011;14240;51.064;16.612;2023-07-22T07:32:28;4.00;;;2.22;;
26598;SDS011;14240;51.064;16.612;2023-07-22T07:34:53;4.90;;;2.63;;
26598;SDS011;14240;51.064;16.612;2023-07-22T07:37:19;4.00;;;2.72;;
26598;SDS011;14240;51.064;16.612;2023-07-22T07:39:45;4.05;;;2.45;;
26598;SDS011;14240;51.064;16.612;2023-07-22T07:42:10;6.15;;;2.78;;
26598;SDS011;14240;51.064;16.612;2023-07-22T07:44:36;4.03;;;2.47;;
26598;SDS011;14240;51.064;16.612;2023-07-22T07:47:02;4.75;;;2.13;;
26598;SDS011;14240;51.064;16.612;2023-07-22T07:49:28;3.15;;;2.20;;
26598;SDS011;14240;51.064;16.612;2023-07-22T07:51:53;2.15;;;1.92;;
26598;SDS011;14240;51.064;16.612;2023-07-22T07:54:19;3.42;;;2.35;;
26598;SDS011;14240;51.064;16.612;2023-07-22T07:56:44;4.18;;;2.10;;
26598;SDS011;14240;51.064;16.612;2023-07-22T07:59:10;4.72;;;2.22;;
26598;SDS011;14240;51.064;16.612;2023-07-22T08:01:35;5.28;;;2.47;;
26598;SDS011;14240;51.064;16.612;2023-07-22T08:04:06;3.90;;;2.30;;
26598;SDS011;14240;51.064;16.612;2023-07-22T08:06:32;2.50;;;2.10;;
26598;SDS011;14240;51.064;16.612;2023-07-22T08:08:58;3.75;;;2.03;;
26598;SDS011;14240;51.064;16.612;2023-07-22T08:11:24;2.78;;;2.00;;
26598;SDS011;14240;51.064;16.612;2023-07-22T08:13:50;2.72;;;1.92;;
26598;SDS011;14240;51.064;16.612;2023-07-22T08:16:17;5.03;;;1.87;;
26598;SDS011;14240;51.064;16.612;2023-07-22T08:18:42;4.10;;;2.30;;
26598;SDS011;14240;51.064;16.612;2023-07-22T08:21:08;3.25;;;2.17;;
26598;SDS011;14240;51.064;16.612;2023-07-22T08:23:35;3.45;;;2.33;;
26598;SDS011;14240;51.064;16.612;2023-07-22T08:26:01;3.10;;;2.08;;
26598;SDS011;14240;51.064;16.612;2023-07-22T08:28:29;3.65;;;1.90;;
26598;SDS011;14240;51.064;16.612;2023-07-22T08:30:56;2.40;;;1.83;;
26598;SDS011;14240;51.064;16.612;2023-07-22T08:33:25;5.55;;;2.17;;
26598;SDS011;14240;51.064;16.612;2023-07-22T08:35:51;7.05;;;2.10;;
26598;SDS011;14240;51.064;16.612;2023-07-22T08:38:16;5.60;;;2.20;;
26598;SDS011;14240;51.064;16.612;2023-07-22T08:40:42;4.82;;;1.90;;
26598;SDS011;14240;51.064;16.612;2023-07-22T08:43:09;3.97;;;1.92;;
26598;SDS011;14240;51.064;16.612;2023-07-22T08:45:36;3.00;;;2.10;;
26598;SDS011;14240;51.064;16.612;2023-07-22T08:50:36;5.65;;;2.13;;
26598;SDS011;14240;51.064;16.612;2023-07-22T08:53:19;4.15;;;2.22;;
26598;SDS011;14240;51.064;16.612;2023-07-22T08:55:46;4.72;;;2.03;;
26598;SDS011;14240;51.064;16.612;2023-07-22T08:58:13;6.95;;;2.53;;
26598;SDS011;14240;51.064;16.612;2023-07-22T09:00:39;2.80;;;2.13;;
26598;SDS011;14240;51.064;16.612;2023-07-22T09:03:05;4.68;;;2.80;;
26598;SDS011;14240;51.064;16.612;2023-07-22T09:05:32;9.55;;;2.60;;
26598;SDS011;14240;51.064;16.612;2023-07-22T09:10:26;5.15;;;2.72;;
26598;SDS011;14240;51.064;16.612;2023-07-22T09:12:53;3.15;;;1.98;;
26598;SDS011;14240;51.064;16.612;2023-07-22T09:15:19;6.93;;;2.30;;
26598;SDS011;14240;51.064;16.612;2023-07-22T09:17:45;3.70;;;2.55;;
26598;SDS011;14240;51.064;16.612;2023-07-22T09:20:12;4.85;;;2.30;;
26598;SDS011;14240;51.064;16.612;2023-07-22T09:22:51;5.53;;;2.35;;
26598;SDS011;14240;51.064;16.612;2023-07-22T09:25:21;3.45;;;2.60;;
26598;SDS011;14240;51.064;16.612;2023-07-22T09:27:49;3.58;;;2.20;;
26598;SDS011;14240;51.064;16.612;2023-07-22T09:33:00;4.35;;;2.38;;
26598;SDS011;14240;51.064;16.612;2023-07-22T09:35:28;4.75;;;2.67;;
26598;SDS011;14240;51.064;16.612;2023-07-22T09:37:55;5.07;;;2.72;;
26598;SDS011;14240;51.064;16.612;2023-07-22T09:40:25;3.42;;;2.30;;
26598;SDS011;14240;51.064;16.612;2023-07-22T09:42:53;4.07;;;2.65;;
26598;SDS011;14240;51.064;16.612;2023-07-22T09:45:22;2.80;;;2.22;;
26598;SDS011;14240;51.064;16.612;2023-07-22T09:47:49;2.78;;;2.38;;
26598;SDS011;14240;51.064;16.612;2023-07-22T09:50:16;5.30;;;2.30;;
26598;SDS011;14240;51.064;16.612;2023-07-22T09:52:53;3.55;;;2.40;;
26598;SDS011;14240;51.064;16.612;2023-07-22T09:55:21;2.95;;;2.28;;
26598;SDS011;14240;51.064;16.612;2023-07-22T09:57:58;3.15;;;2.10;;
26598;SDS011;14240;51.064;16.612;2023-07-22T10:00:35;2.78;;;2.10;;
26598;SDS011;14240;51.064;16.612;2023-07-22T10:03:02;5.10;;;2.75;;
26598;SDS011;14240;51.064;16.612;2023-07-22T10:05:32;3.92;;;2.13;;
26598;SDS011;14240;51.064;16.612;2023-07-22T10:07:59;3.45;;;2.28;;
26598;SDS011;14240;51.064;16.612;2023-07-22T10:10:34;4.93;;;2.28;;
26598;SDS011;14240;51.064;16.612;2023-07-22T10:13:00;4.95;;;2.30;;
26598;SDS011;14240;51.064;16.612;2023-07-22T10:15:28;5.60;;;2.53;;
26598;SDS011;14240;51.064;16.612;2023-07-22T10:17:56;9.82;;;2.75;;
26598;SDS011;14240;51.064;16.612;2023-07-22T10:20:22;6.25;;;2.30;;
26598;SDS011;14240;51.064;16.612;2023-07-22T10:22:49;4.57;;;2.20;;
26598;SDS011;14240;51.064;16.612;2023-07-22T10:25:16;3.88;;;2.42;;
26598;SDS011;14240;51.064;16.612;2023-07-22T10:27:43;5.05;;;2.58;;
26598;SDS011;14240;51.064;16.612;2023-07-22T10:30:13;2.20;;;2.00;;
26598;SDS011;14240;51.064;16.612;2023-07-22T10:35:17;4.45;;;2.33;;
26598;SDS011;14240;51.064;16.612;2023-07-22T10:37:56;4.82;;;2.42;;
26598;SDS011;14240;51.064;16.612;2023-07-22T10:40:44;3.53;;;2.40;;
26598;SDS011;14240;51.064;16.612;2023-07-22T10:43:17;3.47;;;2.40;;
26598;SDS011;14240;51.064;16.612;2023-07-22T10:45:49;2.42;;;2.20;;
26598;SDS011;14240;51.064;16.612;2023-07-22T10:48:16;4.45;;;2.95;;
26598;SDS011;14240;51.064;16.612;2023-07-22T10:53:13;3.13;;;2.30;;
26598;SDS011;14240;51.064;16.612;2023-07-22T10:56:27;2.42;;;1.75;;
26598;SDS011;14240;51.064;16.612;2023-07-22T11:14:47;3.88;;;2.20;;
26598;SDS011;14240;51.064;16.612;2023-07-22T11:17:17;3.22;;;2.63;;
26598;SDS011;14240;51.064;16.612;2023-07-22T11:19:52;4.18;;;2.75;;
26598;SDS011;14240;51.064;16.612;2023-07-22T11:22:18;4.45;;;2.15;;
26598;SDS011;14240;51.064;16.612;2023-07-22T11:24:44;3.42;;;3.10;;
26598;SDS011;14240;51.064;16.612;2023-07-22T11:27:09;4.47;;;2.38;;
26598;SDS011;14240;51.064;16.612;2023-07-22T11:29:35;4.00;;;2.63;;
26598;SDS011;14240;51.064;16.612;2023-07-22T11:32:01;6.18;;;2.65;;
26598;SDS011;14240;51.064;16.612;2023-07-22T11:34:28;3.93;;;2.70;;
26598;SDS011;14240;51.064;16.612;2023-07-22T11:36:54;6.00;;;2.40;;
26598;SDS011;14240;51.064;16.612;2023-07-22T11:39:22;6.60;;;2.47;;
26598;SDS011;14240;51.064;16.612;2023-07-22T11:41:52;4.22;;;2.53;;
26598;SDS011;14240;51.064;16.612;2023-07-22T11:44:19;5.05;;;2.70;;
26598;SDS011;14240;51.064;16.612;2023-07-22T11:46:47;5.75;;;2.53;;
26598;SDS011;14240;51.064;16.612;2023-07-22T11:51:56;10.00;;;2.30;;
26598;SDS011;14240;51.064;16.612;2023-07-22T11:54:23;2.83;;;2.10;;
26598;SDS011;14240;51.064;16.612;2023-07-22T11:56:49;4.45;;;2.13;;
26598;SDS011;14240;51.064;16.612;2023-07-22T11:59:15;3.88;;;2.40;;
26598;SDS011;14240;51.064;16.612;2023-07-22T12:01:42;3.55;;;2.13;;
26598;SDS011;14240;51.064;16.612;2023-07-22T12:04:12;6.97;;;2.35;;
26598;SDS011;14240;51.064;16.612;2023-07-22T12:06:38;3.90;;;2.13;;
26598;SDS011;14240;51.064;16.612;2023-07-22T12:09:06;3.90;;;2.17;;
26598;SDS011;14240;51.064;16.612;2023-07-22T12:11:34;3.85;;;2.30;;
26598;SDS011;14240;51.064;16.612;2023-07-22T12:16:36;4.40;;;2.10;;
26598;SDS011;14240;51.064;16.612;2023-07-22T12:19:02;9.77;;;3.22;;
26598;SDS011;14240;51.064;16.612;2023-07-22T12:21:29;2.97;;;2.28;;
26598;SDS011;14240;51.064;16.612;2023-07-22T12:23:54;4.50;;;2.40;;
26598;SDS011;14240;51.064;16.612;2023-07-22T12:26:20;2.70;;;2.25;;
26598;SDS011;14240;51.064;16.612;2023-07-22T12:28:46;2.83;;;2.28;;
26598;SDS011;14240;51.064;16.612;2023-07-22T12:31:12;4.45;;;2.35;;
26598;SDS011;14240;51.064;16.612;2023-07-22T12:33:37;2.55;;;1.83;;
26598;SDS011;14240;51.064;16.612;2023-07-22T12:36:03;3.85;;;1.70;;
26598;SDS011;14240;51.064;16.612;2023-07-22T12:38:29;3.20;;;1.80;;
26598;SDS011;14240;51.064;16.612;2023-07-22T12:40:55;4.28;;;2.10;;
26598;SDS011;14240;51.064;16.612;2023-07-22T12:43:21;4.53;;;2.10;;
26598;SDS011;14240;51.064;16.612;2023-07-22T12:45:47;4.90;;;2.00;;
26598;SDS011;14240;51.064;16.612;2023-07-22T12:48:12;3.45;;;1.90;;
26598;SDS011;14240;51.064;16.612;2023-07-22T12:50:38;4.68;;;2.05;;
26598;SDS011;14240;51.064;16.612;2023-07-22T12:53:03;1.98;;;1.73;;
26598;SDS011;14240;51.064;16.612;2023-07-22T12:55:29;7.28;;;2.17;;
26598;SDS011;14240;51.064;16.612;2023-07-22T12:57:55;3.00;;;1.52;;
26598;SDS011;14240;51.064;16.612;2023-07-22T13:00:20;1.70;;;1.60;;
26598;SDS011;14240;51.064;16.612;2023-07-22T13:02:46;4.35;;;2.13;;
26598;SDS011;14240;51.064;16.612;2023-07-22T13:05:13;2.55;;;2.28;;
26598;SDS011;14240;51.064;16.612;2023-07-22T13:07:39;1.95;;;1.73;;
26598;SDS011;14240;51.064;16.612;2023-07-22T13:10:05;3.88;;;2.25;;
26598;SDS011;14240;51.064;16.612;2023-07-22T13:12:36;5.07;;;2.28;;
26598;SDS011;14240;51.064;16.612;2023-07-22T13:15:02;2.63;;;1.90;;
26598;SDS011;14240;51.064;16.612;2023-07-22T13:17:28;6.68;;;3.85;;
26598;SDS011;14240;51.064;16.612;2023-07-22T13:19:54;10.95;;;5.78;;
26598;SDS011;14240;51.064;16.612;2023-07-22T13:22:19;8.55;;;5.82;;
26598;SDS011;14240;51.064;16.612;2023-07-22T13:24:45;5.30;;;2.80;;
26598;SDS011;14240;51.064;16.612;2023-07-22T13:27:10;3.95;;;2.30;;
26598;SDS011;14240;51.064;16.612;2023-07-22T13:29:36;6.57;;;2.47;;
26598;SDS011;14240;51.064;16.612;2023-07-22T13:32:02;6.68;;;2.10;;
26598;SDS011;14240;51.064;16.612;2023-07-22T13:34:29;7.18;;;2.05;;
26598;SDS011;14240;51.064;16.612;2023-07-22T13:36:54;2.75;;;2.13;;
26598;SDS011;14240;51.064;16.612;2023-07-22T13:39:20;3.08;;;1.95;;
26598;SDS011;14240;51.064;16.612;2023-07-22T13:41:46;2.60;;;2.00;;
26598;SDS011;14240;51.064;16.612;2023-07-22T13:44:12;5.55;;;3.22;;
26598;SDS011;14240;51.064;16.612;2023-07-22T13:46:38;3.55;;;2.20;;
26598;SDS011;14240;51.064;16.612;2023-07-22T13:49:03;4.35;;;2.10;;
26598;SDS011;14240;51.064;16.612;2023-07-22T13:51:29;2.55;;;1.95;;
26598;SDS011;14240;51.064;16.612;2023-07-22T13:53:54;3.17;;;2.30;;
26598;SDS011;14240;51.064;16.612;2023-07-22T13:56:20;2.72;;;2.22;;
26598;SDS011;14240;51.064;16.612;2023-07-22T13:58:46;4.65;;;2.30;;
26598;SDS011;14240;51.064;16.612;2023-07-22T14:01:12;3.72;;;2.42;;
26598;SDS011;14240;51.064;16.612;2023-07-22T14:03:38;55.13;;;26.77;;
26598;SDS011;14240;51.064;16.612;2023-07-22T14:06:04;20.58;;;7.25;;
26598;SDS011;14240;51.064;16.612;2023-07-22T14:08:29;9.10;;;3.42;;
26598;SDS011;14240;51.064;16.612;2023-07-22T14:10:55;9.02;;;3.35;;
26598;SDS011;14240;51.064;16.612;2023-07-22T14:13:20;4.90;;;2.80;;
26598;SDS011;14240;51.064;16.612;2023-07-22T14:15:46;6.00;;;2.65;;
26598;SDS011;14240;51.064;16.612;2023-07-22T14:18:12;3.10;;;2.28;;
26598;SDS011;14240;51.064;16.612;2023-07-22T14:20:42;3.20;;;2.20;;
26598;SDS011;14240;51.064;16.612;2023-07-22T14:23:08;2.63;;;2.00;;
26598;SDS011;14240;51.064;16.612;2023-07-22T14:25:33;3.30;;;2.10;;
26598;SDS011;14240;51.064;16.612;2023-07-22T14:27:59;3.08;;;2.58;;
26598;SDS011;14240;51.064;16.612;2023-07-22T14:30:25;2.47;;;1.80;;
26598;SDS011;14240;51.064;16.612;2023-07-22T14:32:50;4.05;;;2.10;;
26598;SDS011;14240;51.064;16.612;2023-07-22T14:35:16;3.20;;;2.22;;
26598;SDS011;14240;51.064;16.612;2023-07-22T14:37:41;4.68;;;2.38;;
26598;SDS011;14240;51.064;16.612;2023-07-22T14:40:07;6.55;;;2.33;;
26598;SDS011;14240;51.064;16.612;2023-07-22T14:42:36;6.47;;;2.08;;
26598;SDS011;14240;51.064;16.612;2023-07-22T14:45:01;7.50;;;2.30;;
26598;SDS011;14240;51.064;16.612;2023-07-22T14:47:27;4.72;;;2.30;;
26598;SDS011;14240;51.064;16.612;2023-07-22T14:49:53;4.47;;;2.30;;
26598;SDS011;14240;51.064;16.612;2023-07-22T14:52:19;6.15;;;2.00;;
26598;SDS011;14240;51.064;16.612;2023-07-22T14:54:45;4.90;;;2.83;;
26598;SDS011;14240;51.064;16.612;2023-07-22T14:57:10;4.32;;;2.28;;
26598;SDS011;14240;51.064;16.612;2023-07-22T14:59:36;5.05;;;2.22;;
26598;SDS011;14240;51.064;16.612;2023-07-22T15:02:01;3.08;;;2.45;;
26598;SDS011;14240;51.064;16.612;2023-07-22T15:04:27;3.70;;;2.28;;
26598;SDS011;14240;51.064;16.612;2023-07-22T15:06:53;3.50;;;2.30;;